createdAt,value
2023-03-02T00:01:45.742Z,99284.78
2023-03-02T00:04:18.070Z,99278.34
2023-03-02T00:06:45.176Z,99281.00
2023-03-02T00:09:12.248Z,99286.75
2023-03-02T00:11:39.459Z,99285.56
2023-03-02T00:14:06.838Z,99285.34
2023-03-02T00:16:34.712Z,99274.13
2023-03-02T00:19:01.809Z,99278.94
2023-03-02T00:21:28.817Z,99273.56
2023-03-02T00:23:55.732Z,99270.81
2023-03-02T00:26:22.792Z,99272.34
2023-03-02T00:28:49.755Z,99275.66
2023-03-02T00:31:16.915Z,99252.53
2023-03-02T00:33:44.100Z,99254.22
2023-03-02T00:36:22.312Z,99265.94
2023-03-02T00:38:49.713Z,99272.91
2023-03-02T00:41:17.131Z,99233.66
2023-03-02T00:43:44.074Z,99278.19
2023-03-02T00:46:12.937Z,99271.09
2023-03-02T00:48:39.886Z,99269.50
2023-03-02T00:51:07.974Z,99265.25
2023-03-02T00:53:38.260Z,99270.06
2023-03-02T00:56:06.234Z,99238.94
2023-03-02T00:58:33.200Z,99262.31
2023-03-02T01:01:05.177Z,99260.81
2023-03-02T01:03:32.195Z,99265.13
2023-03-02T01:05:59.160Z,99261.41
2023-03-02T01:08:26.108Z,99257.72
2023-03-02T01:10:54.337Z,99261.28
2023-03-02T01:13:21.607Z,99243.94
2023-03-02T01:15:48.881Z,99218.56
2023-03-02T01:18:15.821Z,99245.84
2023-03-02T01:20:42.773Z,99248.22
2023-03-02T01:23:09.689Z,99247.75
2023-03-02T01:25:39.130Z,99254.31
2023-03-02T01:28:06.079Z,99248.88
2023-03-02T01:30:33.121Z,99236.66
2023-03-02T01:33:00.019Z,99246.00
2023-03-02T01:35:27.066Z,99237.81
2023-03-02T01:37:53.989Z,99238.41
2023-03-02T01:40:20.981Z,99238.31
2023-03-02T01:42:56.868Z,99233.19
2023-03-02T01:46:05.052Z,99229.66
2023-03-02T01:48:35.802Z,99224.38
2023-03-02T01:51:05.270Z,99221.88
2023-03-02T01:53:34.328Z,99227.28
2023-03-02T01:56:03.109Z,99225.25
2023-03-02T01:58:34.726Z,99214.53
2023-03-02T02:01:01.955Z,99205.66
2023-03-02T02:03:31.229Z,99189.06
2023-03-02T02:06:00.704Z,99211.31
2023-03-02T02:08:28.980Z,99201.78
2023-03-02T02:11:13.675Z,99195.91
2023-03-02T02:14:12.964Z,99192.81
2023-03-02T02:16:55.402Z,99187.72
2023-03-02T02:20:13.821Z,99192.81
2023-03-02T02:23:17.974Z,99185.66
2023-03-02T02:26:03.130Z,99188.28
2023-03-02T02:28:48.524Z,99192.81
2023-03-02T02:31:24.022Z,99190.19
2023-03-02T02:33:58.894Z,99180.56
2023-03-02T02:36:34.229Z,99182.06
2023-03-02T02:39:04.614Z,99186.41
2023-03-02T02:41:39.062Z,99185.38
2023-03-02T02:44:06.654Z,99183.31
2023-03-02T02:46:34.756Z,99180.41
2023-03-02T02:49:04.417Z,99186.47
2023-03-02T02:51:31.372Z,99177.78
2023-03-02T02:54:01.331Z,99176.75
2023-03-02T02:56:33.116Z,99165.56
2023-03-02T02:59:06.548Z,99171.09
2023-03-02T03:01:34.811Z,99167.78
2023-03-02T03:04:04.507Z,99158.94
2023-03-02T03:06:42.793Z,99158.47
2023-03-02T03:09:13.121Z,99156.78
2023-03-02T03:11:46.855Z,99154.25
2023-03-02T03:14:16.231Z,99158.94
2023-03-02T03:16:45.339Z,99145.16
2023-03-02T03:19:16.377Z,99150.16
2023-03-02T03:21:43.343Z,99144.81
2023-03-02T03:24:10.803Z,99150.44
2023-03-02T03:26:37.789Z,99125.66
2023-03-02T03:29:05.023Z,99146.22
2023-03-02T03:31:32.000Z,99152.16
2023-03-02T03:34:01.913Z,99149.22
2023-03-02T03:36:30.997Z,99150.75
2023-03-02T03:38:58.516Z,99148.88
2023-03-02T03:41:25.654Z,99143.69
2023-03-02T03:43:53.372Z,99136.31
2023-03-02T03:46:20.790Z,99136.69
2023-03-02T03:48:47.799Z,99146.38
2023-03-02T03:51:14.736Z,99142.41
2023-03-02T03:53:41.667Z,99138.06
2023-03-02T03:56:08.716Z,99140.44
2023-03-02T03:58:36.085Z,99140.44
2023-03-02T04:01:05.944Z,99135.81
2023-03-02T04:03:33.954Z,99135.75
2023-03-02T04:06:01.076Z,99138.56
2023-03-02T04:08:28.145Z,99146.22
2023-03-02T04:10:55.077Z,99141.94
2023-03-02T04:13:22.026Z,99138.56
2023-03-02T04:15:48.962Z,99133.66
2023-03-02T04:18:15.929Z,99143.81
2023-03-02T04:20:42.843Z,99140.66
2023-03-02T04:23:09.813Z,99132.59
2023-03-02T04:25:36.680Z,99137.75
2023-03-02T04:28:03.643Z,99130.69
2023-03-02T04:30:30.631Z,99132.47
2023-03-02T04:32:57.885Z,99135.03
2023-03-02T04:35:25.783Z,99136.09
2023-03-02T04:37:52.771Z,99135.50
2023-03-02T04:40:20.260Z,99133.03
2023-03-02T04:42:47.488Z,99136.63
2023-03-02T04:45:15.226Z,99119.44
2023-03-02T04:47:42.760Z,99121.34
2023-03-02T04:50:12.412Z,99088.91
2023-03-02T04:52:39.628Z,99117.06
2023-03-02T04:55:07.572Z,99117.34
2023-03-02T04:57:36.944Z,99112.00
2023-03-02T05:00:05.154Z,99113.06
2023-03-02T05:02:32.405Z,99115.59
2023-03-02T05:04:59.327Z,99118.97
2023-03-02T05:07:26.324Z,99127.47
2023-03-02T05:09:53.246Z,99124.84
2023-03-02T05:12:21.921Z,99130.38
2023-03-02T05:14:48.816Z,99137.53
2023-03-02T05:17:15.912Z,99127.16
2023-03-02T05:19:42.847Z,99128.84
2023-03-02T05:22:09.992Z,99132.59
2023-03-02T05:24:37.611Z,99131.94
2023-03-02T05:27:05.090Z,99132.84
2023-03-02T05:29:32.097Z,99151.28
2023-03-02T05:31:59.110Z,99148.66
2023-03-02T05:34:26.063Z,99138.88
2023-03-02T05:36:52.928Z,99145.84
2023-03-02T05:39:19.869Z,99146.56
2023-03-02T05:41:46.785Z,99138.75
2023-03-02T05:44:13.760Z,99126.81
2023-03-02T05:46:41.876Z,99140.50
2023-03-02T05:49:08.977Z,99139.72
2023-03-02T05:51:35.869Z,99138.72
2023-03-02T05:54:02.766Z,99141.94
2023-03-02T05:56:29.661Z,99137.81
2023-03-02T05:58:56.588Z,99144.94
2023-03-02T06:01:23.544Z,99146.97
2023-03-02T06:03:50.477Z,99144.56
2023-03-02T06:06:17.429Z,99145.81
2023-03-02T06:08:44.901Z,99148.72
2023-03-02T06:11:12.837Z,99127.66
2023-03-02T06:13:40.522Z,99149.47
2023-03-02T06:16:08.557Z,99145.50
2023-03-02T06:18:36.387Z,99141.81
2023-03-02T06:21:03.964Z,99161.06
2023-03-02T06:23:31.188Z,99149.00
2023-03-02T06:25:59.262Z,99141.66
2023-03-02T06:28:26.978Z,99147.31
2023-03-02T06:30:53.972Z,99150.91
2023-03-02T06:33:21.719Z,99128.81
2023-03-02T06:35:49.490Z,99155.59
2023-03-02T06:38:16.755Z,99152.16
2023-03-02T06:40:44.089Z,99154.97
2023-03-02T06:43:11.372Z,99152.88
2023-03-02T06:45:38.564Z,99155.56
2023-03-02T06:48:05.906Z,99145.72
2023-03-02T06:50:33.834Z,99151.25
2023-03-02T06:53:00.826Z,99152.00
2023-03-02T06:55:27.891Z,99154.34
2023-03-02T06:57:54.809Z,99155.88
2023-03-02T07:00:26.518Z,99148.81
2023-03-02T07:02:54.013Z,99151.69
2023-03-02T07:05:22.050Z,99144.91
2023-03-02T07:07:49.064Z,99147.56
2023-03-02T07:10:16.495Z,99151.47
2023-03-02T07:12:43.454Z,99150.75
2023-03-02T07:15:12.523Z,99149.69
2023-03-02T07:17:40.467Z,99133.34
2023-03-02T07:20:08.722Z,99148.34
2023-03-02T07:22:35.789Z,99157.13
2023-03-02T07:25:02.694Z,99158.53
2023-03-02T07:27:29.894Z,99150.19
2023-03-02T07:29:56.770Z,99134.94
2023-03-02T07:32:23.871Z,99154.53
2023-03-02T07:34:50.786Z,99144.94
2023-03-02T07:37:17.818Z,99156.84
2023-03-02T07:39:44.817Z,99157.81
2023-03-02T07:42:12.954Z,99149.66
2023-03-02T07:44:39.983Z,99159.00
2023-03-02T07:47:06.926Z,99154.03
2023-03-02T07:49:35.585Z,99157.19
2023-03-02T07:52:03.321Z,99152.13
2023-03-02T07:54:30.756Z,99153.34
2023-03-02T07:56:58.629Z,99121.69
2023-03-02T07:59:26.308Z,99129.16
2023-03-02T08:01:53.286Z,99144.53
2023-03-02T08:04:20.220Z,99147.75
2023-03-02T08:06:47.175Z,99141.22
2023-03-02T08:09:16.729Z,99140.06
2023-03-02T08:11:45.043Z,99114.06
2023-03-02T08:14:12.206Z,99113.06
2023-03-02T08:16:40.176Z,99143.59
2023-03-02T08:19:08.042Z,99137.47
2023-03-02T08:21:35.422Z,99117.16
2023-03-02T08:24:02.569Z,99127.91
2023-03-02T08:26:29.648Z,99129.78
2023-03-02T08:28:56.664Z,99124.75
2023-03-02T08:31:23.789Z,99128.03
2023-03-02T08:33:51.246Z,99124.66
2023-03-02T08:36:19.658Z,99127.72
2023-03-02T08:38:47.754Z,99123.38
2023-03-02T08:41:25.223Z,99123.22
2023-03-02T08:43:54.473Z,99115.50
2023-03-02T08:46:22.105Z,99113.06
2023-03-02T08:48:52.799Z,99127.97
2023-03-02T08:51:22.800Z,99118.81
2023-03-02T08:53:51.837Z,99112.03
2023-03-02T08:56:22.047Z,99116.75
2023-03-02T08:58:50.076Z,99097.63
2023-03-02T09:01:27.168Z,99109.34
2023-03-02T09:03:54.189Z,99110.69
2023-03-02T09:06:21.647Z,99105.00
2023-03-02T09:08:50.004Z,99102.44
2023-03-02T09:11:17.372Z,99111.63
2023-03-02T09:13:44.364Z,99106.84
2023-03-02T09:16:12.292Z,99109.06
2023-03-02T09:18:39.767Z,99099.78
2023-03-02T09:21:07.054Z,99107.34
2023-03-02T09:23:36.729Z,99094.84
2023-03-02T09:26:04.698Z,99080.66
2023-03-02T09:28:32.235Z,99099.25
2023-03-02T09:31:01.976Z,99094.00
2023-03-02T09:33:30.376Z,99090.56
2023-03-02T09:35:57.353Z,99089.75
2023-03-02T09:38:24.471Z,99086.00
2023-03-02T09:41:27.310Z,99083.59
2023-03-02T09:44:12.991Z,99072.13
2023-03-02T09:46:44.509Z,99085.44
2023-03-02T09:49:35.879Z,99081.66
2023-03-02T09:52:35.489Z,99080.56
2023-03-02T09:55:18.540Z,99065.28
2023-03-02T09:57:47.333Z,99073.91
2023-03-02T10:00:27.385Z,99077.44
2023-03-02T10:03:17.054Z,99065.34
2023-03-02T10:05:50.382Z,99074.91
2023-03-02T10:08:23.846Z,99069.19
2023-03-02T10:10:58.297Z,99063.81
2023-03-02T10:13:47.578Z,99068.84
2023-03-02T10:16:31.362Z,99046.16
2023-03-02T10:19:08.104Z,99062.47
2023-03-02T10:21:41.606Z,99054.38
2023-03-02T10:24:23.927Z,99051.69
2023-03-02T10:26:55.488Z,99056.19
2023-03-02T10:29:41.094Z,99053.28
2023-03-02T10:32:20.052Z,99033.81
2023-03-02T10:34:49.471Z,99046.91
2023-03-02T10:37:21.899Z,99044.69
2023-03-02T10:39:49.826Z,99029.38
2023-03-02T10:42:22.706Z,99017.97
2023-03-02T10:44:55.721Z,99022.25
2023-03-02T10:47:28.493Z,99029.59
2023-03-02T10:49:57.466Z,99018.53
2023-03-02T10:52:26.546Z,99018.19
2023-03-02T10:55:07.802Z,99010.44
2023-03-02T10:57:58.988Z,99012.41
2023-03-02T11:00:28.950Z,99003.09
2023-03-02T11:02:59.109Z,99007.63
2023-03-02T11:05:30.981Z,99001.50
2023-03-02T11:08:05.591Z,99001.09
2023-03-02T11:10:41.973Z,98995.63
2023-03-02T11:13:28.913Z,98991.13
2023-03-02T11:16:23.002Z,98990.16
2023-03-02T11:18:54.767Z,98981.56
2023-03-02T11:21:38.341Z,98980.88
2023-03-02T11:24:18.585Z,98983.22
2023-03-02T11:26:59.920Z,98981.81
2023-03-02T11:29:35.744Z,98979.50
2023-03-02T11:32:08.685Z,98973.78
2023-03-02T11:34:41.440Z,98971.91
2023-03-02T11:37:40.548Z,98964.59
2023-03-02T11:40:16.385Z,98962.59
2023-03-02T11:42:45.765Z,98958.22
2023-03-02T11:45:18.027Z,98953.81
2023-03-02T11:48:05.114Z,98946.84
2023-03-02T11:50:46.407Z,98950.09
2023-03-02T11:53:18.281Z,98940.66
2023-03-02T11:55:48.812Z,98941.06
2023-03-02T11:58:21.894Z,98948.91
2023-03-02T12:00:49.836Z,98929.94
2023-03-02T12:03:16.675Z,98937.28
2023-03-02T12:05:51.400Z,98927.81
2023-03-02T12:08:21.123Z,98918.31
2023-03-02T12:11:00.932Z,98912.13
2023-03-02T12:13:30.765Z,98915.91
2023-03-02T12:15:58.009Z,98916.06
2023-03-02T12:18:25.123Z,98902.84
2023-03-02T12:21:19.953Z,98907.22
2023-03-02T12:23:49.664Z,98901.19
2023-03-02T12:26:34.333Z,98899.66
2023-03-02T12:29:07.194Z,98896.06
2023-03-02T12:31:55.548Z,98892.63
2023-03-02T12:34:27.332Z,98894.28
2023-03-02T12:37:01.913Z,98895.41
2023-03-02T12:39:34.688Z,98888.78
2023-03-02T12:42:32.461Z,98882.75
2023-03-02T12:45:20.846Z,98879.13
2023-03-02T12:47:57.204Z,98865.91
2023-03-02T12:50:27.814Z,98873.34
2023-03-02T12:53:06.585Z,98867.94
2023-03-02T12:55:34.609Z,98872.88
2023-03-02T12:58:02.352Z,98862.25
2023-03-02T13:00:32.165Z,98861.22
2023-03-02T13:03:02.386Z,98861.16
2023-03-02T13:05:35.404Z,98854.00
2023-03-02T13:08:06.248Z,98840.34
2023-03-02T13:10:56.329Z,98849.47
2023-03-02T13:13:34.915Z,98847.34
2023-03-02T13:16:20.545Z,98832.69
2023-03-02T13:18:50.052Z,98841.38
2023-03-02T13:21:19.304Z,98848.00
2023-03-02T13:23:54.549Z,98830.38
2023-03-02T13:26:35.913Z,98822.91
2023-03-02T13:29:19.441Z,98824.13
2023-03-02T13:31:47.281Z,98822.78
2023-03-02T13:34:28.558Z,98825.59
2023-03-02T13:36:55.866Z,98816.94
2023-03-02T13:39:27.514Z,98813.56
2023-03-02T13:42:00.376Z,98811.91
2023-03-02T13:44:29.826Z,98806.22
2023-03-02T13:46:57.251Z,98805.69
2023-03-02T13:49:35.592Z,98807.38
2023-03-02T13:52:08.320Z,98802.41
2023-03-02T13:54:37.732Z,98795.44
2023-03-02T13:57:06.336Z,98784.63
2023-03-02T13:59:36.800Z,98759.41
2023-03-02T14:02:06.652Z,98780.72
2023-03-02T14:04:33.667Z,98787.78
2023-03-02T14:07:00.692Z,98782.94
2023-03-02T14:09:27.589Z,98774.03
2023-03-02T14:11:56.203Z,98771.34
2023-03-02T14:14:27.318Z,98768.28
2023-03-02T14:16:54.224Z,98763.88
2023-03-02T14:19:21.541Z,98771.41
2023-03-02T14:21:48.405Z,98763.88
2023-03-02T14:24:15.514Z,98762.66
2023-03-02T14:26:49.190Z,98766.06
2023-03-02T14:29:23.710Z,98764.03
2023-03-02T14:31:51.348Z,98756.84
2023-03-02T14:34:18.512Z,98754.28
2023-03-02T14:36:49.134Z,98757.84
2023-03-02T14:39:40.251Z,98753.25
2023-03-02T14:42:13.113Z,98753.81
2023-03-02T14:44:41.365Z,98742.34
2023-03-02T14:47:10.300Z,98746.63
2023-03-02T14:49:38.418Z,98749.06
2023-03-02T14:52:25.173Z,98745.44
2023-03-02T14:54:58.207Z,98742.72
2023-03-02T14:57:28.028Z,98741.19
2023-03-02T14:59:56.421Z,98717.16
2023-03-02T15:02:26.544Z,98734.84
2023-03-02T15:04:56.518Z,98735.78
2023-03-02T15:07:26.324Z,98741.75
2023-03-02T15:09:54.835Z,98733.28
2023-03-02T15:12:21.949Z,98732.50
2023-03-02T15:14:48.858Z,98741.78
2023-03-02T15:17:15.864Z,98745.00
2023-03-02T15:19:42.838Z,98741.63
2023-03-02T15:22:09.873Z,98745.78
2023-03-02T15:24:36.792Z,98740.72
2023-03-02T15:27:03.813Z,98742.41
2023-03-02T15:29:30.721Z,98747.63
2023-03-02T15:31:57.698Z,98746.88
2023-03-02T15:34:24.703Z,98738.78
2023-03-02T15:36:51.574Z,98740.56
2023-03-02T15:39:18.477Z,98745.84
2023-03-02T15:41:45.578Z,98742.78
2023-03-02T15:44:23.120Z,98751.03
2023-03-02T15:46:51.995Z,98748.69
2023-03-02T15:49:24.664Z,98746.63
2023-03-02T15:51:52.414Z,98746.28
2023-03-02T15:54:19.848Z,98744.91
2023-03-02T15:56:52.339Z,98753.19
2023-03-02T15:59:24.306Z,98748.44
2023-03-02T16:01:52.122Z,98717.00
2023-03-02T16:04:19.689Z,98753.56
2023-03-02T16:06:46.633Z,98737.41
2023-03-02T16:09:13.579Z,98758.44
2023-03-02T16:11:40.545Z,98752.19
2023-03-02T16:14:10.358Z,98753.47
2023-03-02T16:16:37.333Z,98757.41
2023-03-02T16:19:04.325Z,98760.81
2023-03-02T16:21:31.496Z,98757.16
2023-03-02T16:24:04.763Z,98750.63
2023-03-02T16:26:33.817Z,98751.16
2023-03-02T16:29:01.754Z,98756.56
2023-03-02T16:31:32.555Z,98769.28
2023-03-02T16:34:03.939Z,98760.22
2023-03-02T16:36:30.985Z,98765.22
2023-03-02T16:38:57.860Z,98771.56
2023-03-02T16:41:24.857Z,98769.69
2023-03-02T16:43:57.192Z,98774.53
2023-03-02T16:46:26.140Z,98769.28
2023-03-02T16:48:53.763Z,98772.78
2023-03-02T16:51:22.168Z,98774.22
2023-03-02T16:53:49.438Z,98781.69
2023-03-02T16:56:16.483Z,98782.25
2023-03-02T16:58:44.015Z,98788.41
2023-03-02T17:01:14.705Z,98775.59
2023-03-02T17:03:42.507Z,98788.31
2023-03-02T17:06:11.856Z,98798.13
2023-03-02T17:08:39.148Z,98794.72
2023-03-02T17:11:06.793Z,98796.63
2023-03-02T17:13:34.485Z,98801.53
2023-03-02T17:16:01.941Z,98798.09
2023-03-02T17:18:30.033Z,98798.88
2023-03-02T17:20:58.842Z,98803.31
2023-03-02T17:23:27.378Z,98768.69
2023-03-02T17:25:55.820Z,98801.38
2023-03-02T17:28:23.249Z,98807.88
2023-03-02T17:30:50.805Z,98801.81
2023-03-02T17:33:18.496Z,98810.88
2023-03-02T17:35:46.414Z,98799.78
2023-03-02T17:38:14.786Z,98796.72
2023-03-02T17:40:43.181Z,98803.03
2023-03-02T17:43:10.722Z,98804.34
2023-03-02T17:45:40.426Z,98807.59
2023-03-02T17:48:07.537Z,98781.47
2023-03-02T17:50:35.307Z,98795.38
2023-03-02T17:53:03.484Z,98797.94
2023-03-02T17:55:31.307Z,98803.47
2023-03-02T17:57:58.965Z,98799.84
2023-03-02T18:00:26.426Z,98802.56
2023-03-02T18:02:54.833Z,98795.44
2023-03-02T18:05:22.884Z,98801.38
2023-03-02T18:07:52.154Z,98807.44
2023-03-02T18:10:19.635Z,98806.13
2023-03-02T18:12:52.353Z,98812.88
2023-03-02T18:15:21.351Z,98808.94
2023-03-02T18:17:49.360Z,98802.75
2023-03-02T18:20:17.417Z,98809.47
2023-03-02T18:22:44.625Z,98811.88
2023-03-02T18:25:14.351Z,98799.53
2023-03-02T18:27:41.713Z,98810.38
2023-03-02T18:30:09.686Z,98814.84
2023-03-02T18:32:38.505Z,98819.75
2023-03-02T18:35:08.629Z,98820.56
2023-03-02T18:37:37.343Z,98817.03
2023-03-02T18:40:06.725Z,98822.22
2023-03-02T18:42:34.321Z,98816.88
2023-03-02T18:45:01.536Z,98811.41
2023-03-02T18:47:34.903Z,98811.50
2023-03-02T18:50:01.878Z,98816.22
2023-03-02T18:52:29.152Z,98822.78
2023-03-02T18:54:58.349Z,98821.78
2023-03-02T18:57:25.827Z,98817.00
2023-03-02T18:59:53.621Z,98818.22
2023-03-02T19:02:21.489Z,98821.72
2023-03-02T19:04:48.794Z,98830.97
2023-03-02T19:07:16.576Z,98825.06
2023-03-02T19:09:43.722Z,98828.84
2023-03-02T19:12:11.920Z,98830.91
2023-03-02T19:14:42.898Z,98835.09
2023-03-02T19:17:10.423Z,98807.69
2023-03-02T19:19:37.519Z,98826.59
2023-03-02T19:22:09.369Z,98832.19
2023-03-02T19:24:36.616Z,98825.09
2023-03-02T19:27:03.879Z,98836.59
2023-03-02T19:29:30.722Z,98830.69
2023-03-02T19:31:57.892Z,98830.97
2023-03-02T19:34:24.917Z,98838.03
2023-03-02T19:36:51.816Z,98842.78
2023-03-02T19:39:18.808Z,98838.25
2023-03-02T19:41:45.772Z,98851.41
2023-03-02T19:44:12.817Z,98842.97
2023-03-02T19:46:40.490Z,98832.72
2023-03-02T19:49:07.451Z,98829.34
2023-03-02T19:51:35.199Z,98830.25
2023-03-02T19:54:04.093Z,98833.13
2023-03-02T19:56:40.308Z,98825.59
2023-03-02T19:59:08.758Z,98828.53
2023-03-02T20:01:36.276Z,98839.63
2023-03-02T20:04:03.935Z,98830.38
2023-03-02T20:06:34.351Z,98828.31
2023-03-02T20:09:06.953Z,98836.66
2023-03-02T20:11:34.974Z,98834.25
2023-03-02T20:14:02.474Z,98828.94
2023-03-02T20:16:34.701Z,98827.16
2023-03-02T20:19:04.149Z,98821.84
2023-03-02T20:21:34.295Z,98830.75
2023-03-02T20:24:01.543Z,98824.59
2023-03-02T20:26:28.627Z,98817.59
2023-03-02T20:28:56.657Z,98822.91
2023-03-02T20:31:25.223Z,98828.00
2023-03-02T20:33:55.012Z,98827.28
2023-03-02T20:36:35.941Z,98825.59
2023-03-02T20:39:34.188Z,98825.09
2023-03-02T20:42:03.229Z,98818.59
2023-03-02T20:44:33.672Z,98817.41
2023-03-02T20:47:07.371Z,98826.19
2023-03-02T20:49:36.627Z,98825.34
2023-03-02T20:52:05.587Z,98828.94
2023-03-02T20:54:37.170Z,98819.44
2023-03-02T20:57:05.795Z,98824.84
2023-03-02T20:59:32.972Z,98819.91
2023-03-02T21:02:00.157Z,98819.06
2023-03-02T21:04:27.453Z,98786.91
2023-03-02T21:06:54.640Z,98811.38
2023-03-02T21:09:21.680Z,98814.00
2023-03-02T21:11:49.046Z,98822.09
2023-03-02T21:14:16.588Z,98814.00
2023-03-02T21:16:45.837Z,98819.22
2023-03-02T21:19:17.445Z,98817.41
2023-03-02T21:21:44.441Z,98812.94
2023-03-02T21:24:13.582Z,98813.91
2023-03-02T21:26:41.885Z,98807.00
2023-03-02T21:29:11.873Z,98802.22
2023-03-02T21:31:41.276Z,98800.88
2023-03-02T21:34:08.557Z,98792.81
2023-03-02T21:36:36.631Z,98801.50
2023-03-02T21:39:07.274Z,98795.84
2023-03-02T21:41:36.207Z,98800.16
2023-03-02T21:44:05.915Z,98798.25
2023-03-02T21:46:35.103Z,98763.03
2023-03-02T21:49:02.155Z,98786.91
2023-03-02T21:51:29.194Z,98785.69
2023-03-02T21:53:56.185Z,98783.03
2023-03-02T21:56:25.626Z,98782.94
2023-03-02T21:58:55.512Z,98780.16
2023-03-02T22:01:24.338Z,98772.56
2023-03-02T22:03:51.387Z,98779.44
2023-03-02T22:06:24.096Z,98781.00
2023-03-02T22:08:52.304Z,98780.03
2023-03-02T22:11:30.868Z,98777.16
2023-03-02T22:14:00.714Z,98770.16
2023-03-02T22:16:37.387Z,98767.41
2023-03-02T22:19:27.960Z,98774.38
2023-03-02T22:21:57.079Z,98773.56
2023-03-02T22:24:26.947Z,98772.06
2023-03-02T22:27:02.631Z,98773.06
2023-03-02T22:29:33.735Z,98774.97
2023-03-02T22:32:15.526Z,98753.78
2023-03-02T22:34:44.555Z,98770.63
2023-03-02T22:37:15.460Z,98764.75
2023-03-02T22:39:42.560Z,98764.03
2023-03-02T22:42:16.784Z,98768.50
2023-03-02T22:44:48.001Z,98765.94
2023-03-02T22:47:20.525Z,98761.59
2023-03-02T22:49:48.169Z,98756.44
2023-03-02T22:52:21.079Z,98752.09
2023-03-02T22:54:48.053Z,98709.09
2023-03-02T22:57:33.735Z,98732.22
2023-03-02T23:00:29.864Z,98736.19
2023-03-02T23:02:57.677Z,98747.50
2023-03-02T23:05:34.961Z,98750.00
2023-03-02T23:08:22.608Z,98745.91
2023-03-02T23:10:51.597Z,98746.63
2023-03-02T23:13:21.102Z,98748.06
2023-03-02T23:15:49.461Z,98745.31
2023-03-02T23:18:24.389Z,98743.03
2023-03-02T23:20:52.565Z,98738.09
2023-03-02T23:23:21.390Z,98712.66
2023-03-02T23:25:49.087Z,98730.94
2023-03-02T23:28:16.025Z,98720.50
2023-03-02T23:30:43.109Z,98718.81
2023-03-02T23:33:10.080Z,98728.44
2023-03-02T23:35:37.070Z,98723.25
2023-03-02T23:38:04.190Z,98719.91
2023-03-02T23:40:31.098Z,98716.41
2023-03-02T23:42:58.012Z,98714.22
2023-03-02T23:45:24.962Z,98723.84
2023-03-02T23:47:52.362Z,98726.59
2023-03-02T23:50:19.267Z,98725.03
2023-03-02T23:52:46.181Z,98721.06
2023-03-02T23:55:13.154Z,98728.16
2023-03-02T23:57:40.098Z,98723.59
